createdAt,value
2018-02-22T00:00:28.020Z,0
2018-02-22T00:01:08.591Z,0
2018-02-22T00:01:49.087Z,0
2018-02-22T00:02:29.713Z,0
2018-02-22T00:03:10.269Z,0
2018-02-22T00:03:50.781Z,0
2018-02-22T00:04:31.302Z,0
2018-02-22T00:05:12.045Z,0
2018-02-22T00:05:52.532Z,0
2018-02-22T00:06:33.097Z,0
2018-02-22T00:07:13.676Z,0
2018-02-22T00:07:54.190Z,0
2018-02-22T00:08:34.801Z,0
2018-02-22T00:09:15.430Z,0
2018-02-22T00:09:55.944Z,0
2018-02-22T00:10:36.454Z,0
2018-02-22T00:11:17.006Z,0
2018-02-22T00:11:57.537Z,0
2018-02-22T00:12:38.160Z,0
2018-02-22T00:13:18.648Z,0
2018-02-22T00:13:59.205Z,0
2018-02-22T00:14:39.756Z,0
2018-02-22T00:15:20.325Z,0
2018-02-22T00:16:00.894Z,0
2018-02-22T00:16:41.432Z,0
2018-02-22T00:17:21.962Z,0
2018-02-22T00:18:02.514Z,0
2018-02-22T00:18:43.066Z,0
2018-02-22T00:19:23.644Z,0
2018-02-22T00:20:04.254Z,0
2018-02-22T00:20:44.798Z,0
2018-02-22T00:21:25.380Z,0
2018-02-22T00:22:05.818Z,0
2018-02-22T00:22:46.406Z,0
2018-02-22T00:23:26.974Z,0
2018-02-22T00:24:07.520Z,0
2018-02-22T00:24:48.079Z,0
2018-02-22T00:25:28.652Z,0
2018-02-22T00:26:09.207Z,0
2018-02-22T00:26:49.760Z,0
2018-02-22T00:27:30.322Z,0
2018-02-22T00:28:10.880Z,0
2018-02-22T00:28:51.437Z,0
2018-02-22T00:29:32.032Z,0
2018-02-22T00:30:12.595Z,0
2018-02-22T00:30:53.169Z,0
2018-02-22T00:31:33.738Z,0
2018-02-22T00:32:14.302Z,0
2018-02-22T00:32:54.854Z,0
2018-02-22T00:33:35.414Z,0
2018-02-22T00:34:15.969Z,0
2018-02-22T00:34:56.535Z,0
2018-02-22T00:35:37.147Z,0
2018-02-22T00:36:17.704Z,0
2018-02-22T00:36:58.267Z,0
2018-02-22T00:37:38.824Z,0
2018-02-22T00:38:19.403Z,0
2018-02-22T00:38:59.949Z,0
2018-02-22T00:39:40.512Z,0
2018-02-22T00:40:21.056Z,0
2018-02-22T00:41:01.612Z,0
2018-02-22T00:41:42.172Z,0
2018-02-22T00:42:22.747Z,0
2018-02-22T00:43:03.314Z,0
2018-02-22T00:43:43.882Z,0
2018-02-22T00:44:24.441Z,0
2018-02-22T00:45:04.996Z,0
2018-02-22T00:45:45.565Z,0
2018-02-22T00:46:26.125Z,0
2018-02-22T00:47:06.685Z,0
2018-02-22T00:47:47.264Z,0
2018-02-22T00:48:27.807Z,0
2018-02-22T00:49:08.379Z,0
2018-02-22T00:49:48.934Z,0
2018-02-22T00:50:29.483Z,0
2018-02-22T00:51:10.062Z,0
2018-02-22T00:51:50.613Z,0
2018-02-22T00:52:31.180Z,0
2018-02-22T00:53:11.731Z,0
2018-02-22T00:53:52.297Z,0
2018-02-22T00:54:32.869Z,0
2018-02-22T00:55:13.419Z,0
2018-02-22T00:55:53.971Z,0
2018-02-22T00:56:34.526Z,0
2018-02-22T00:57:15.099Z,0
2018-02-22T00:57:55.665Z,0
2018-02-22T00:58:36.216Z,0
2018-02-22T00:59:16.769Z,0
2018-02-22T00:59:57.307Z,0
2018-02-22T01:00:37.872Z,0
2018-02-22T01:01:18.419Z,0
2018-02-22T01:01:58.961Z,0
2018-02-22T01:02:39.530Z,0
2018-02-22T01:03:20.084Z,0
2018-02-22T01:04:00.694Z,0
2018-02-22T01:04:41.253Z,0
2018-02-22T01:05:21.800Z,0
2018-02-22T01:06:02.362Z,0
2018-02-22T01:06:42.913Z,0
2018-02-22T01:07:23.477Z,0
2018-02-22T01:08:04.035Z,0
2018-02-22T01:08:44.576Z,0
2018-02-22T01:09:25.130Z,0
2018-02-22T01:10:05.689Z,0
2018-02-22T01:10:46.222Z,0
2018-02-22T01:11:26.790Z,0
2018-02-22T01:12:07.385Z,0
2018-02-22T01:12:47.940Z,0
2018-02-22T01:13:28.495Z,0
2018-02-22T01:14:09.059Z,0
2018-02-22T01:14:49.613Z,0
2018-02-22T01:15:30.165Z,0
2018-02-22T01:16:10.752Z,0
2018-02-22T01:16:51.320Z,0
2018-02-22T01:17:31.877Z,0
2018-02-22T01:18:12.431Z,0
2018-02-22T01:18:52.979Z,0
2018-02-22T01:19:33.523Z,0
2018-02-22T01:20:14.085Z,0
2018-02-22T01:20:54.640Z,0
2018-02-22T01:21:35.203Z,0
2018-02-22T01:22:15.742Z,0
2018-02-22T01:22:56.307Z,0
2018-02-22T01:23:36.872Z,0
2018-02-22T01:24:17.448Z,0
2018-02-22T01:24:58.005Z,0
2018-02-22T01:25:38.569Z,0
2018-02-22T01:26:19.119Z,0
2018-02-22T01:26:59.665Z,0
2018-02-22T01:27:40.209Z,0
2018-02-22T01:28:20.773Z,0
2018-02-22T01:29:01.326Z,0
2018-02-22T01:29:41.882Z,0
2018-02-22T01:30:22.436Z,0
2018-02-22T01:31:03.001Z,0
2018-02-22T01:31:43.590Z,0
2018-02-22T01:32:24.150Z,0
2018-02-22T01:33:04.726Z,0
2018-02-22T01:33:45.287Z,0
2018-02-22T01:34:25.788Z,0
2018-02-22T01:35:06.345Z,0
2018-02-22T01:35:46.898Z,0
2018-02-22T01:36:27.455Z,0
2018-02-22T01:37:08.008Z,0
2018-02-22T01:37:48.560Z,0
2018-02-22T01:38:29.129Z,0
2018-02-22T01:39:09.691Z,0
2018-02-22T01:39:50.237Z,0
2018-02-22T01:40:30.796Z,0
2018-02-22T01:41:11.335Z,0
2018-02-22T01:41:51.901Z,0
2018-02-22T01:42:32.490Z,0
2018-02-22T01:43:13.059Z,0
2018-02-22T01:43:53.609Z,0
2018-02-22T01:44:34.166Z,0
2018-02-22T01:45:14.712Z,0
2018-02-22T01:45:55.273Z,0
2018-02-22T01:46:35.828Z,0
2018-02-22T01:47:16.390Z,0
2018-02-22T01:47:56.932Z,0
2018-02-22T01:48:37.503Z,0
2018-02-22T01:49:18.056Z,0
2018-02-22T01:49:58.617Z,0
2018-02-22T01:50:39.171Z,0
2018-02-22T01:51:19.723Z,0
2018-02-22T01:52:00.293Z,0
2018-02-22T01:52:40.877Z,0
2018-02-22T01:53:21.476Z,0
2018-02-22T01:54:02.031Z,0
2018-02-22T01:54:42.583Z,0
2018-02-22T01:55:23.137Z,0
2018-02-22T01:56:03.689Z,0
2018-02-22T01:56:44.257Z,0
2018-02-22T01:57:24.818Z,0
2018-02-22T01:58:05.599Z,0
2018-02-22T01:58:46.157Z,0
2018-02-22T01:59:26.725Z,0
2018-02-22T02:00:07.296Z,0
2018-02-22T02:00:48.189Z,0
2018-02-22T02:01:28.750Z,0
2018-02-22T02:02:09.302Z,0
2018-02-22T02:02:49.856Z,0
2018-02-22T02:03:30.605Z,0
2018-02-22T02:04:11.145Z,0
2018-02-22T02:04:51.701Z,0
2018-02-22T02:05:32.245Z,0
2018-02-22T02:06:12.799Z,0
2018-02-22T02:06:53.320Z,0
2018-02-22T02:07:33.875Z,0
2018-02-22T02:08:14.441Z,0
2018-02-22T02:08:55.003Z,0
2018-02-22T02:09:35.550Z,0
2018-02-22T02:10:16.132Z,0
2018-02-22T02:10:56.668Z,0
2018-02-22T02:11:37.218Z,0
2018-02-22T02:12:17.814Z,0
2018-02-22T02:12:58.324Z,0
2018-02-22T02:13:38.904Z,0
2018-02-22T02:14:19.462Z,0
2018-02-22T02:15:00.021Z,0
2018-02-22T02:15:40.606Z,0
2018-02-22T02:16:21.140Z,0
2018-02-22T02:17:01.710Z,0
2018-02-22T02:17:42.265Z,0
2018-02-22T02:18:22.827Z,0
2018-02-22T02:19:03.375Z,0
2018-02-22T02:19:43.919Z,0
2018-02-22T02:20:24.473Z,0
2018-02-22T02:21:05.018Z,0
2018-02-22T02:21:45.553Z,0
2018-02-22T02:22:26.112Z,0
2018-02-22T02:23:06.658Z,0
2018-02-22T02:23:47.232Z,0
2018-02-22T02:24:27.788Z,0
2018-02-22T02:25:08.361Z,0
2018-02-22T02:25:48.918Z,0
2018-02-22T02:26:29.488Z,0
2018-02-22T02:27:10.051Z,0
2018-02-22T02:27:50.626Z,0
2018-02-22T02:28:31.183Z,0
2018-02-22T02:29:11.741Z,0
2018-02-22T02:29:52.286Z,0
2018-02-22T02:30:32.846Z,0
2018-02-22T02:31:13.399Z,0
2018-02-22T02:31:53.970Z,0
2018-02-22T02:32:34.543Z,0
2018-02-22T02:33:15.100Z,0
2018-02-22T02:33:55.665Z,0
2018-02-22T02:34:36.240Z,0
2018-02-22T02:35:16.804Z,0
2018-02-22T02:35:57.377Z,0
2018-02-22T02:36:37.924Z,0
2018-02-22T02:37:18.465Z,0
2018-02-22T02:37:59.044Z,0
2018-02-22T02:38:39.598Z,0
2018-02-22T02:39:20.159Z,0
2018-02-22T02:40:00.718Z,0
2018-02-22T02:40:41.263Z,0
2018-02-22T02:41:21.803Z,0
2018-02-22T02:42:02.364Z,0
2018-02-22T02:42:42.936Z,0
2018-02-22T02:43:23.484Z,0
2018-02-22T02:44:04.053Z,0
2018-02-22T02:44:44.609Z,0
2018-02-22T02:45:25.164Z,0
2018-02-22T02:46:05.719Z,0
2018-02-22T02:46:46.273Z,0
2018-02-22T02:47:26.828Z,0
2018-02-22T02:48:07.372Z,0
2018-02-22T02:48:47.972Z,0
2018-02-22T02:49:28.516Z,0
2018-02-22T02:50:09.068Z,0
2018-02-22T02:50:49.633Z,0
2018-02-22T02:51:30.230Z,0
2018-02-22T02:52:10.802Z,0
2018-02-22T02:52:51.368Z,0
2018-02-22T02:53:31.947Z,0
2018-02-22T02:54:13.245Z,0
2018-02-22T02:54:53.775Z,0
2018-02-22T02:55:34.330Z,0
2018-02-22T02:56:14.890Z,0
2018-02-22T02:56:55.435Z,0
2018-02-22T02:57:36.000Z,0
2018-02-22T02:58:16.552Z,0
2018-02-22T02:58:57.110Z,0
2018-02-22T02:59:37.656Z,0
2018-02-22T03:00:18.211Z,0
2018-02-22T03:00:58.775Z,0
2018-02-22T03:01:39.354Z,0
2018-02-22T03:02:19.895Z,0
2018-02-22T03:03:00.475Z,0
2018-02-22T03:03:41.025Z,0
2018-02-22T03:04:21.576Z,0
2018-02-22T03:05:02.127Z,0
2018-02-22T03:05:42.673Z,0
2018-02-22T03:06:23.221Z,0
2018-02-22T03:07:03.776Z,0
2018-02-22T03:07:44.356Z,0
2018-02-22T03:08:24.918Z,0
2018-02-22T03:09:05.469Z,0
2018-02-22T03:09:46.017Z,0
2018-02-22T03:10:26.570Z,0
2018-02-22T03:11:07.126Z,0
2018-02-22T03:11:47.707Z,0
2018-02-22T03:12:28.268Z,0
2018-02-22T03:13:08.831Z,0
2018-02-22T03:13:49.394Z,0
2018-02-22T03:14:29.946Z,0
2018-02-22T03:15:10.506Z,0
2018-02-22T03:15:51.069Z,0
2018-02-22T03:16:31.637Z,0
2018-02-22T03:17:12.198Z,0
2018-02-22T03:17:52.751Z,0
2018-02-22T03:18:33.297Z,0
2018-02-22T03:19:13.841Z,0
2018-02-22T03:19:54.418Z,0
2018-02-22T03:20:34.945Z,0
2018-02-22T03:21:15.504Z,0
2018-02-22T03:21:56.079Z,0
2018-02-22T03:22:36.624Z,0
2018-02-22T03:23:17.185Z,0
2018-02-22T03:23:57.740Z,0
2018-02-22T03:24:38.294Z,0
2018-02-22T03:25:18.853Z,0
2018-02-22T03:25:59.416Z,0
2018-02-22T03:26:39.966Z,0
2018-02-22T03:27:20.537Z,0
2018-02-22T03:28:01.099Z,0
2018-02-22T03:28:41.654Z,0
2018-02-22T03:29:22.209Z,0
2018-02-22T03:30:02.774Z,0
2018-02-22T03:30:43.318Z,0
2018-02-22T03:31:23.866Z,0
2018-02-22T03:32:04.469Z,0
2018-02-22T03:32:45.009Z,0
2018-02-22T03:33:25.579Z,0
2018-02-22T03:34:06.137Z,0
2018-02-22T03:34:46.692Z,0
2018-02-22T03:35:27.272Z,0
2018-02-22T03:36:07.868Z,0
2018-02-22T03:36:48.411Z,0
2018-02-22T03:37:28.961Z,0
2018-02-22T03:38:09.501Z,0
2018-02-22T03:38:50.066Z,0
2018-02-22T03:39:30.709Z,0
2018-02-22T03:40:11.262Z,0
2018-02-22T03:40:51.820Z,0
2018-02-22T03:41:32.401Z,0
2018-02-22T03:42:12.962Z,0
2018-02-22T03:42:53.526Z,0
2018-02-22T03:43:34.086Z,0
2018-02-22T03:44:14.630Z,0
2018-02-22T03:44:55.209Z,0
2018-02-22T03:45:35.737Z,0
2018-02-22T03:46:16.290Z,0
2018-02-22T03:46:56.844Z,0
2018-02-22T03:47:37.395Z,0
2018-02-22T03:48:17.945Z,0
2018-02-22T03:48:58.500Z,0
2018-02-22T03:49:39.062Z,0
2018-02-22T03:50:19.624Z,0
2018-02-22T03:51:00.188Z,0
2018-02-22T03:51:40.740Z,0
2018-02-22T03:52:21.286Z,0
2018-02-22T03:53:01.853Z,0
2018-02-22T03:53:42.414Z,0
2018-02-22T03:54:23.018Z,0
2018-02-22T03:55:03.557Z,0
2018-02-22T03:55:44.121Z,0
2018-02-22T03:56:24.675Z,0
2018-02-22T03:57:05.235Z,0
2018-02-22T03:57:45.785Z,0
2018-02-22T03:58:26.348Z,0
2018-02-22T03:59:06.920Z,0
2018-02-22T03:59:47.468Z,0
2018-02-22T04:00:28.034Z,0
2018-02-22T04:01:08.588Z,0
2018-02-22T04:01:49.145Z,0
2018-02-22T04:02:29.686Z,0
2018-02-22T04:03:10.271Z,0
2018-02-22T04:03:50.836Z,0
2018-02-22T04:04:31.395Z,0
2018-02-22T04:05:11.948Z,0
2018-02-22T04:05:52.501Z,0
2018-02-22T04:06:33.072Z,0
2018-02-22T04:07:13.622Z,0
2018-02-22T04:07:54.175Z,0
2018-02-22T04:08:34.727Z,0
2018-02-22T04:09:15.288Z,0
2018-02-22T04:09:55.896Z,0
2018-02-22T04:10:36.469Z,0
2018-02-22T04:11:17.022Z,0
2018-02-22T04:11:57.574Z,0
2018-02-22T04:12:38.124Z,0
2018-02-22T04:13:18.681Z,0
2018-02-22T04:13:59.227Z,0
2018-02-22T04:14:39.781Z,0
2018-02-22T04:15:20.327Z,0
2018-02-22T04:16:00.884Z,0
2018-02-22T04:16:41.443Z,0
2018-02-22T04:17:22.009Z,0
2018-02-22T04:18:02.559Z,0
2018-02-22T04:18:43.142Z,0
2018-02-22T04:19:23.723Z,0
2018-02-22T04:20:04.245Z,0
2018-02-22T04:20:44.796Z,0
2018-02-22T04:21:25.357Z,0
2018-02-22T04:22:05.916Z,0
2018-02-22T04:22:46.476Z,0
2018-02-22T04:23:27.085Z,0
2018-02-22T04:24:07.622Z,0
2018-02-22T04:24:48.184Z,0
2018-02-22T04:25:28.730Z,0
2018-02-22T04:26:09.270Z,0
2018-02-22T04:26:49.830Z,0
2018-02-22T04:27:30.401Z,0
2018-02-22T04:28:10.959Z,0
2018-02-22T04:28:51.517Z,0
2018-02-22T04:29:32.069Z,0
2018-02-22T04:30:12.661Z,0
2018-02-22T04:30:53.233Z,0
2018-02-22T04:31:33.792Z,0
2018-02-22T04:32:14.339Z,0
2018-02-22T04:32:54.910Z,0
2018-02-22T04:33:35.471Z,0
2018-02-22T04:34:16.088Z,0
2018-02-22T04:34:56.639Z,0
2018-02-22T04:35:37.212Z,0
2018-02-22T04:36:17.751Z,0
2018-02-22T04:36:58.330Z,0
2018-02-22T04:37:38.882Z,0
2018-02-22T04:38:19.451Z,0
2018-02-22T04:39:00.006Z,0
2018-02-22T04:39:40.564Z,0
2018-02-22T04:40:21.123Z,0
2018-02-22T04:41:01.694Z,0
2018-02-22T04:41:42.238Z,0
2018-02-22T04:42:22.781Z,0
2018-02-22T04:43:03.359Z,0
2018-02-22T04:43:43.909Z,0
2018-02-22T04:44:24.458Z,0
2018-02-22T04:45:05.015Z,0
2018-02-22T04:45:45.562Z,0
2018-02-22T04:46:26.128Z,0
2018-02-22T04:47:06.684Z,0
2018-02-22T04:47:47.240Z,0
2018-02-22T04:48:27.795Z,0
2018-02-22T04:49:08.355Z,0
2018-02-22T04:49:48.909Z,0
2018-02-22T04:50:29.492Z,0
2018-02-22T04:51:10.042Z,0
2018-02-22T04:51:50.590Z,0
2018-02-22T04:52:31.192Z,0
2018-02-22T04:53:11.701Z,0
2018-02-22T04:53:52.263Z,0
2018-02-22T04:54:32.864Z,0
2018-02-22T04:55:13.388Z,0
2018-02-22T04:55:53.936Z,0
2018-02-22T04:56:34.508Z,0
2018-02-22T04:57:15.077Z,0
2018-02-22T04:57:55.624Z,0
2018-02-22T04:58:36.183Z,0
2018-02-22T04:59:16.729Z,0
2018-02-22T04:59:57.280Z,0
2018-02-22T05:00:37.838Z,0
2018-02-22T05:01:18.393Z,0
2018-02-22T05:01:58.943Z,0
2018-02-22T05:02:39.538Z,0
2018-02-22T05:03:20.104Z,0
2018-02-22T05:04:00.671Z,0
2018-02-22T05:04:41.240Z,0
2018-02-22T05:05:21.792Z,0
2018-02-22T05:06:02.342Z,0
2018-02-22T05:06:42.909Z,0
2018-02-22T05:07:23.453Z,0
2018-02-22T05:08:04.017Z,0
2018-02-22T05:08:44.579Z,0
2018-02-22T05:09:25.146Z,0
2018-02-22T05:10:05.706Z,0
2018-02-22T05:10:46.265Z,0
2018-02-22T05:11:26.831Z,0
2018-02-22T05:12:07.385Z,0
2018-02-22T05:12:47.945Z,0
2018-02-22T05:13:28.496Z,0
2018-02-22T05:14:09.089Z,0
2018-02-22T05:14:49.606Z,0
2018-02-22T05:15:30.162Z,0
2018-02-22T05:16:10.730Z,0
2018-02-22T05:16:51.270Z,0
2018-02-22T05:17:31.825Z,0
2018-02-22T05:18:12.376Z,0
2018-02-22T05:18:52.922Z,0
2018-02-22T05:19:33.478Z,0
2018-02-22T05:20:14.042Z,0
2018-02-22T05:20:54.624Z,0
2018-02-22T05:21:35.177Z,0
2018-02-22T05:22:15.737Z,0
2018-02-22T05:22:56.296Z,0
2018-02-22T05:23:36.849Z,0
2018-02-22T05:24:17.417Z,0
2018-02-22T05:24:57.977Z,0
2018-02-22T05:25:38.527Z,0
2018-02-22T05:26:19.074Z,0
2018-02-22T05:26:59.636Z,0
2018-02-22T05:27:40.186Z,0
2018-02-22T05:28:20.743Z,0
2018-02-22T05:29:01.314Z,0
2018-02-22T05:29:41.853Z,0
2018-02-22T05:30:22.421Z,0
2018-02-22T05:31:02.963Z,0
2018-02-22T05:31:43.513Z,0
2018-02-22T05:32:24.071Z,0
2018-02-22T05:33:04.635Z,0
2018-02-22T05:33:45.191Z,0
2018-02-22T05:34:25.745Z,0
2018-02-22T05:35:06.322Z,0
2018-02-22T05:35:46.900Z,0
2018-02-22T05:36:27.460Z,0
2018-02-22T05:37:08.008Z,0
2018-02-22T05:37:48.634Z,0
2018-02-22T05:38:29.222Z,0
2018-02-22T05:39:09.784Z,0
2018-02-22T05:39:50.323Z,0
2018-02-22T05:40:30.897Z,0
2018-02-22T05:41:11.443Z,0
2018-02-22T05:41:52.250Z,0
2018-02-22T05:42:32.788Z,0
2018-02-22T05:43:13.375Z,0
2018-02-22T05:43:53.930Z,0
2018-02-22T05:44:34.496Z,0
2018-02-22T05:45:15.043Z,0
2018-02-22T05:45:55.606Z,0
2018-02-22T05:46:36.283Z,0
2018-02-22T05:47:16.851Z,0
2018-02-22T05:47:57.454Z,0
2018-02-22T05:48:38.017Z,0
2018-02-22T05:49:18.564Z,0
2018-02-22T05:49:59.159Z,0
2018-02-22T05:50:39.727Z,0
2018-02-22T05:51:20.286Z,0
2018-02-22T05:52:00.848Z,0
2018-02-22T05:52:41.397Z,0
2018-02-22T05:53:21.957Z,0
2018-02-22T05:54:02.624Z,4
2018-02-22T05:54:43.208Z,4
2018-02-22T05:55:23.770Z,0
2018-02-22T05:56:04.330Z,0
2018-02-22T05:56:44.898Z,4
2018-02-22T05:57:25.440Z,4
2018-02-22T05:58:06.116Z,0
2018-02-22T05:58:46.680Z,4
2018-02-22T05:59:27.350Z,4
2018-02-22T06:00:07.899Z,4
2018-02-22T06:00:48.454Z,8
2018-02-22T06:01:29.019Z,8
2018-02-22T06:02:09.572Z,4
2018-02-22T06:02:50.253Z,8
2018-02-22T06:03:30.810Z,8
2018-02-22T06:04:11.387Z,12
2018-02-22T06:04:52.261Z,12
2018-02-22T06:05:32.777Z,12
2018-02-22T06:06:13.429Z,16
2018-02-22T06:06:54.589Z,20
2018-02-22T06:07:35.131Z,16
2018-02-22T06:08:15.689Z,20
2018-02-22T06:08:56.339Z,24
2018-02-22T06:09:36.935Z,28
2018-02-22T06:10:17.469Z,32
2018-02-22T06:10:58.024Z,36
2018-02-22T06:11:38.568Z,40
2018-02-22T06:12:19.136Z,40
2018-02-22T06:12:59.683Z,44
2018-02-22T06:13:40.227Z,48
2018-02-22T06:14:20.783Z,52
2018-02-22T06:15:01.334Z,56
2018-02-22T06:15:41.884Z,60
2018-02-22T06:16:22.448Z,68
2018-02-22T06:17:03.011Z,76
2018-02-22T06:17:43.570Z,80
2018-02-22T06:18:24.141Z,88
2018-02-22T06:19:04.703Z,92
2018-02-22T06:19:45.262Z,96
2018-02-22T06:20:25.821Z,104
2018-02-22T06:21:06.378Z,116
2018-02-22T06:21:46.935Z,120
2018-02-22T06:22:27.479Z,124
2018-02-22T06:23:08.032Z,132
2018-02-22T06:23:48.585Z,144
2018-02-22T06:24:29.135Z,152
2018-02-22T06:25:09.689Z,160
2018-02-22T06:25:50.243Z,168
2018-02-22T06:26:30.791Z,180
2018-02-22T06:27:11.360Z,188
2018-02-22T06:27:51.910Z,196
2018-02-22T06:28:32.459Z,208
2018-02-22T06:29:13.133Z,220
2018-02-22T06:29:53.742Z,224
2018-02-22T06:30:34.314Z,236
2018-02-22T06:31:14.861Z,244
2018-02-22T06:31:55.432Z,252
2018-02-22T06:32:35.988Z,264
2018-02-22T06:33:16.556Z,272
2018-02-22T06:33:57.119Z,288
2018-02-22T06:34:37.670Z,296
2018-02-22T06:35:18.237Z,304
2018-02-22T06:35:58.804Z,316
2018-02-22T06:36:39.370Z,324
2018-02-22T06:37:19.929Z,332
2018-02-22T06:38:00.479Z,340
2018-02-22T06:38:41.047Z,352
2018-02-22T06:39:21.668Z,356
2018-02-22T06:40:02.239Z,372
2018-02-22T06:40:42.781Z,380
2018-02-22T06:41:23.324Z,392
2018-02-22T06:42:03.878Z,404
2018-02-22T06:42:44.440Z,412
2018-02-22T06:43:25.016Z,424
2018-02-22T06:44:05.577Z,432
2018-02-22T06:44:46.129Z,444
2018-02-22T06:45:26.695Z,456
2018-02-22T06:46:07.263Z,464
2018-02-22T06:46:47.851Z,468
2018-02-22T06:47:28.455Z,480
2018-02-22T06:48:08.964Z,484
2018-02-22T06:48:49.522Z,492
2018-02-22T06:49:30.063Z,500
2018-02-22T06:50:10.623Z,512
2018-02-22T06:50:51.186Z,516
2018-02-22T06:51:31.739Z,528
2018-02-22T06:52:12.311Z,536
2018-02-22T06:52:52.864Z,548
2018-02-22T06:53:33.425Z,552
2018-02-22T06:54:13.979Z,560
2018-02-22T06:54:54.967Z,572
2018-02-22T06:55:35.666Z,584
2018-02-22T06:56:16.206Z,596
2018-02-22T06:56:56.796Z,604
2018-02-22T06:57:37.297Z,612
2018-02-22T06:58:18.566Z,620
2018-02-22T06:58:59.150Z,628
2018-02-22T06:59:39.721Z,636
2018-02-22T07:00:20.291Z,644
2018-02-22T07:01:00.844Z,652
2018-02-22T07:01:41.399Z,660
2018-02-22T07:02:22.077Z,664
2018-02-22T07:03:02.656Z,672
2018-02-22T07:03:43.167Z,680
2018-02-22T07:04:24.148Z,688
2018-02-22T07:05:05.254Z,696
2018-02-22T07:05:45.918Z,704
2018-02-22T07:06:29.707Z,712
2018-02-22T07:07:10.354Z,720
2018-02-22T07:07:50.911Z,728
2018-02-22T07:08:32.027Z,732
2018-02-22T07:09:12.661Z,740
2018-02-22T07:09:56.201Z,744
2018-02-22T07:11:54.928Z,760
2018-02-22T07:12:35.461Z,768
2018-02-22T07:13:16.011Z,776
2018-02-22T07:13:56.651Z,784
2018-02-22T07:14:37.147Z,792
2018-02-22T07:15:17.723Z,800
2018-02-22T07:15:58.304Z,808
2018-02-22T07:16:38.860Z,812
2018-02-22T07:17:19.442Z,820
2018-02-22T07:18:00.028Z,828
2018-02-22T07:18:40.525Z,836
2018-02-22T07:19:21.085Z,844
2018-02-22T07:20:01.752Z,860
2018-02-22T07:20:42.252Z,868
2018-02-22T07:21:22.805Z,876
2018-02-22T07:22:03.356Z,888
2018-02-22T07:22:45.017Z,892
2018-02-22T07:23:25.538Z,908
2018-02-22T07:24:06.075Z,920
2018-02-22T07:24:49.991Z,932
2018-02-22T07:25:30.588Z,956
2018-02-22T07:26:11.089Z,976
2018-02-22T07:26:51.668Z,1004
2018-02-22T07:27:32.168Z,1040
2018-02-22T07:28:12.705Z,1068
2018-02-22T07:28:53.297Z,1088
2018-02-22T07:29:33.866Z,1112
2018-02-22T07:30:14.328Z,1148
2018-02-22T07:30:54.896Z,1164
2018-02-22T07:31:35.403Z,1172
2018-02-22T07:32:15.881Z,1172
2018-02-22T07:32:56.396Z,1164
2018-02-22T07:33:36.978Z,1156
2018-02-22T07:34:17.501Z,1172
2018-02-22T07:34:58.045Z,1160
2018-02-22T07:35:38.556Z,1140
2018-02-22T07:36:19.093Z,1140
2018-02-22T07:36:59.643Z,1140
2018-02-22T07:37:40.176Z,1168
2018-02-22T07:38:20.724Z,1164
2018-02-22T07:39:01.337Z,1176
2018-02-22T07:39:41.904Z,1180
2018-02-22T07:40:22.401Z,1188
2018-02-22T07:41:02.935Z,1188
2018-02-22T07:41:43.473Z,1204
2018-02-22T07:42:23.995Z,1212
2018-02-22T07:43:04.542Z,1232
2018-02-22T07:43:45.097Z,1256
2018-02-22T07:44:25.577Z,1288
2018-02-22T07:45:06.119Z,1300
2018-02-22T07:45:46.627Z,1332
2018-02-22T07:46:27.203Z,1348
2018-02-22T07:47:07.772Z,1376
2018-02-22T07:47:48.304Z,1408
2018-02-22T07:48:28.828Z,1472
2018-02-22T07:49:09.361Z,1496
2018-02-22T07:49:49.913Z,1544
2018-02-22T07:50:30.463Z,1616
2018-02-22T07:51:11.123Z,1624
2018-02-22T07:51:51.702Z,1708
2018-02-22T07:52:32.247Z,1752
2018-02-22T07:53:12.805Z,1840
2018-02-22T07:53:53.357Z,1832
2018-02-22T07:54:33.922Z,1892
2018-02-22T07:55:14.482Z,1968
2018-02-22T07:55:55.040Z,1924
2018-02-22T07:56:35.588Z,1968
2018-02-22T07:57:16.159Z,2044
2018-02-22T07:57:56.753Z,2104
2018-02-22T07:58:37.354Z,2056
2018-02-22T07:59:17.934Z,1988
2018-02-22T07:59:58.564Z,1944
2018-02-22T08:00:39.051Z,1984
2018-02-22T08:01:19.614Z,2076
2018-02-22T08:02:00.180Z,2184
2018-02-22T08:02:40.735Z,2184
2018-02-22T08:03:21.287Z,2152
2018-02-22T08:04:01.841Z,2176
2018-02-22T08:04:42.387Z,2216
2018-02-22T08:05:22.948Z,2232
2018-02-22T08:06:03.510Z,2260
2018-02-22T08:06:44.187Z,2360
2018-02-22T08:07:24.732Z,2500
2018-02-22T08:08:05.293Z,2376
2018-02-22T08:08:45.838Z,2352
2018-02-22T08:09:26.391Z,2380
2018-02-22T08:10:06.967Z,2456
2018-02-22T08:10:47.978Z,2468
2018-02-22T08:11:28.538Z,2480
2018-02-22T08:12:09.096Z,2488
2018-02-22T08:12:49.637Z,2484
2018-02-22T08:13:30.216Z,2504
2018-02-22T08:14:10.768Z,2536
2018-02-22T08:14:51.315Z,2556
2018-02-22T08:15:31.872Z,2568
2018-02-22T08:16:13.101Z,2588
2018-02-22T08:16:53.667Z,2612
2018-02-22T08:17:34.209Z,2644
2018-02-22T08:18:14.771Z,2672
2018-02-22T08:18:55.338Z,2704
2018-02-22T08:19:35.962Z,2740
2018-02-22T08:20:16.572Z,2780
2018-02-22T08:20:57.151Z,2804
2018-02-22T08:21:38.329Z,2832
2018-02-22T08:22:19.586Z,2864
2018-02-22T08:23:00.535Z,2892
2018-02-22T08:23:41.751Z,2920
2018-02-22T08:24:23.017Z,2940
2018-02-22T08:25:04.160Z,2968
2018-02-22T08:25:44.852Z,2988
2018-02-22T08:26:25.720Z,3000
2018-02-22T08:27:06.650Z,3028
2018-02-22T08:27:47.230Z,3056
2018-02-22T08:28:27.791Z,3068
2018-02-22T08:29:08.307Z,3084
2018-02-22T08:29:49.112Z,3076
2018-02-22T08:30:29.934Z,3084
2018-02-22T08:31:10.730Z,3064
2018-02-22T08:31:51.514Z,3052
2018-02-22T08:32:32.370Z,3048
2018-02-22T08:33:13.203Z,3032
2018-02-22T08:33:54.027Z,2996
2018-02-22T08:34:34.599Z,2980
2018-02-22T08:35:15.215Z,2952
2018-02-22T08:35:55.776Z,2928
2018-02-22T08:36:36.318Z,2912
2018-02-22T08:37:17.015Z,2860
2018-02-22T08:37:57.588Z,2828
2018-02-22T08:38:38.156Z,2796
2018-02-22T08:39:18.780Z,2772
2018-02-22T08:39:59.323Z,2748
2018-02-22T08:40:39.877Z,2728
2018-02-22T08:41:20.428Z,2708
2018-02-22T08:42:00.993Z,2692
2018-02-22T08:42:41.554Z,2684
2018-02-22T08:43:22.110Z,2660
2018-02-22T08:44:02.665Z,2620
2018-02-22T08:44:43.291Z,2576
2018-02-22T08:45:23.818Z,2544
2018-02-22T08:46:04.354Z,2524
2018-02-22T08:46:44.928Z,2496
2018-02-22T08:47:25.466Z,2464
2018-02-22T08:48:06.008Z,2452
2018-02-22T08:48:46.565Z,2428
2018-02-22T08:49:27.094Z,2400
2018-02-22T08:50:07.637Z,2388
2018-02-22T08:50:48.198Z,2384
2018-02-22T08:51:28.740Z,2384
2018-02-22T08:52:09.265Z,2388
2018-02-22T08:52:49.798Z,2388
2018-02-22T08:53:30.347Z,2376
2018-02-22T08:54:11.028Z,2360
2018-02-22T08:54:51.539Z,2348
2018-02-22T08:55:32.101Z,2332
2018-02-22T08:56:12.638Z,2340
2018-02-22T08:56:53.175Z,2332
2018-02-22T08:57:33.713Z,2308
2018-02-22T08:58:14.295Z,2284
2018-02-22T08:58:54.759Z,2276
2018-02-22T08:59:35.294Z,2348
2018-02-22T09:00:15.918Z,2384
2018-02-22T09:00:56.458Z,2408
2018-02-22T09:01:36.996Z,2404
2018-02-22T09:02:17.610Z,2448
2018-02-22T09:02:58.115Z,2492
2018-02-22T09:03:38.643Z,2492
2018-02-22T09:04:19.124Z,2468
2018-02-22T09:04:59.709Z,2528
2018-02-22T09:05:40.230Z,2564
2018-02-22T09:06:20.726Z,2568
2018-02-22T09:07:01.268Z,2584
2018-02-22T09:07:41.840Z,2616
2018-02-22T09:08:22.331Z,2676
2018-02-22T09:09:02.864Z,2688
2018-02-22T09:09:43.439Z,2672
2018-02-22T09:10:23.988Z,2712
2018-02-22T09:11:04.518Z,2764
2018-02-22T09:11:45.052Z,2712
2018-02-22T09:12:25.605Z,2624
2018-02-22T09:13:06.159Z,2656
2018-02-22T09:13:46.724Z,2668
2018-02-22T09:14:27.222Z,2708
2018-02-22T09:15:07.788Z,2768
2018-02-22T09:15:48.259Z,2808
2018-02-22T09:16:28.885Z,2840
2018-02-22T09:17:09.372Z,2820
2018-02-22T09:17:49.937Z,2844
2018-02-22T09:18:30.480Z,2844
2018-02-22T09:19:11.018Z,2856
2018-02-22T09:19:51.532Z,2864
2018-02-22T09:20:32.127Z,2860
2018-02-22T09:21:12.623Z,2856
2018-02-22T09:21:53.166Z,2852
2018-02-22T09:22:33.734Z,2856
2018-02-22T09:23:14.244Z,2860
2018-02-22T09:23:54.778Z,2880
2018-02-22T09:24:35.315Z,2888
2018-02-22T09:25:15.879Z,2888
2018-02-22T09:25:56.445Z,2876
2018-02-22T09:26:37.005Z,2880
2018-02-22T09:27:17.567Z,2880
2018-02-22T09:27:58.116Z,2888
2018-02-22T09:28:38.729Z,2876
2018-02-22T09:29:19.279Z,2860
2018-02-22T09:29:59.826Z,2856
2018-02-22T09:30:40.377Z,2824
2018-02-22T09:31:20.934Z,2800
2018-02-22T09:32:01.593Z,2796
2018-02-22T09:32:42.139Z,2816
2018-02-22T09:33:22.680Z,2832
2018-02-22T09:34:03.239Z,2824
2018-02-22T09:34:43.789Z,2812
2018-02-22T09:35:24.340Z,2792
2018-02-22T09:36:04.908Z,2744
2018-02-22T09:36:45.464Z,2720
2018-02-22T09:37:26.027Z,2760
2018-02-22T09:38:06.576Z,2764
2018-02-22T09:38:47.136Z,2820
2018-02-22T09:39:27.712Z,2840
2018-02-22T09:40:08.850Z,2852
2018-02-22T09:40:49.402Z,2880
2018-02-22T09:41:29.974Z,2912